createdAt,value
2017-03-31T00:01:08.538Z,1019.98
2017-03-31T00:02:18.150Z,1019.93
2017-03-31T00:03:27.043Z,1019.96
2017-03-31T00:04:35.935Z,1019.9
2017-03-31T00:05:44.826Z,1019.91
2017-03-31T00:06:53.720Z,1019.94
2017-03-31T00:08:02.710Z,1019.88
2017-03-31T00:09:11.602Z,1019.9
2017-03-31T00:10:20.490Z,1019.88
2017-03-31T00:11:30.353Z,1019.89
2017-03-31T00:12:39.261Z,1019.88
2017-03-31T00:13:48.448Z,1019.84
2017-03-31T00:14:57.336Z,1019.86
2017-03-31T00:16:06.553Z,1019.81
2017-03-31T00:17:15.443Z,1019.83
2017-03-31T00:18:24.654Z,1019.8
2017-03-31T00:19:33.541Z,1019.83
2017-03-31T00:20:42.430Z,1019.79
2017-03-31T00:21:51.322Z,1019.8
2017-03-31T00:23:00.211Z,1019.77
2017-03-31T00:24:09.103Z,1019.78
2017-03-31T00:25:18.091Z,1019.71
2017-03-31T00:26:26.980Z,1019.73
2017-03-31T00:27:36.227Z,1019.69
2017-03-31T00:28:45.116Z,1019.68
2017-03-31T00:29:54.005Z,1019.69
2017-03-31T00:31:03.044Z,1019.66
2017-03-31T00:32:11.936Z,1019.69
2017-03-31T00:33:20.823Z,1019.68
2017-03-31T00:34:29.715Z,1019.7
2017-03-31T00:35:38.603Z,1019.68
2017-03-31T00:36:47.647Z,1019.66
2017-03-31T00:37:56.861Z,1019.67
2017-03-31T00:39:05.750Z,1019.63
2017-03-31T00:40:14.638Z,1019.65
2017-03-31T00:41:23.527Z,1019.63
2017-03-31T00:42:32.563Z,1019.66
2017-03-31T00:43:41.777Z,1019.63
2017-03-31T00:44:50.671Z,1019.64
2017-03-31T00:45:59.883Z,1019.56
2017-03-31T00:47:08.776Z,1019.58
2017-03-31T00:48:17.818Z,1019.52
2017-03-31T00:49:26.707Z,1019.55
2017-03-31T00:50:35.927Z,1019.54
2017-03-31T00:51:44.819Z,1019.53
2017-03-31T00:52:54.032Z,1019.51
2017-03-31T00:54:03.008Z,1019.45
2017-03-31T00:55:11.897Z,1019.39
2017-03-31T00:56:20.786Z,1019.41
2017-03-31T00:57:29.676Z,1019.37
2017-03-31T00:58:38.921Z,1019.41
2017-03-31T00:59:47.961Z,1019.38
2017-03-31T01:00:56.854Z,1019.39
2017-03-31T01:02:05.747Z,1019.37
2017-03-31T01:03:14.634Z,1019.36
2017-03-31T01:04:23.853Z,1019.39
2017-03-31T01:05:32.992Z,1019.41
2017-03-31T01:06:41.877Z,1019.36
2017-03-31T01:07:50.768Z,1019.32
2017-03-31T01:08:59.658Z,1019.33
2017-03-31T01:10:08.572Z,1019.3
2017-03-31T01:11:17.464Z,1019.28
2017-03-31T01:12:26.679Z,1019.27
2017-03-31T01:13:35.903Z,1019.27
2017-03-31T01:14:45.113Z,1019.2
2017-03-31T01:15:54.002Z,1019.19
2017-03-31T01:17:03.275Z,1019.23
2017-03-31T01:18:12.167Z,1019.16
2017-03-31T01:19:21.059Z,1019.2
2017-03-31T01:20:29.948Z,1019.18
2017-03-31T01:21:38.840Z,1019.16
2017-03-31T01:22:47.781Z,1019.12
2017-03-31T01:23:56.991Z,1019.13
2017-03-31T01:25:05.882Z,1019.12
2017-03-31T01:26:14.822Z,1019.11
2017-03-31T01:27:23.712Z,1019.11
2017-03-31T01:28:33.082Z,1019.09
2017-03-31T01:29:41.974Z,1019.07
2017-03-31T01:30:51.193Z,1019.06
2017-03-31T01:32:00.079Z,1019.08
2017-03-31T01:33:08.971Z,1019.02
2017-03-31T01:34:18.159Z,1019.02
2017-03-31T01:35:27.074Z,1018.99
2017-03-31T01:36:35.965Z,1018.98
2017-03-31T01:37:44.856Z,1019.02
2017-03-31T01:38:53.773Z,1018.96
2017-03-31T01:40:02.966Z,1018.97
2017-03-31T01:41:11.856Z,1018.93
2017-03-31T01:42:20.746Z,1018.91
2017-03-31T01:43:29.637Z,1018.88
2017-03-31T01:44:38.527Z,1018.83
2017-03-31T01:45:47.467Z,1018.82
2017-03-31T01:46:56.687Z,1018.83
2017-03-31T01:48:05.580Z,1018.78
2017-03-31T01:49:14.475Z,1018.75
2017-03-31T01:50:23.688Z,1018.77
2017-03-31T01:51:32.626Z,1018.75
2017-03-31T01:52:41.841Z,1018.74
2017-03-31T01:53:51.054Z,1018.78
2017-03-31T01:54:59.946Z,1018.72
2017-03-31T01:56:08.840Z,1018.71
2017-03-31T01:57:17.914Z,1018.72
2017-03-31T01:58:27.129Z,1018.73
2017-03-31T01:59:36.344Z,1018.67
2017-03-31T02:00:45.562Z,1018.71
2017-03-31T02:01:54.777Z,1018.66
2017-03-31T02:03:04.141Z,1018.69
2017-03-31T02:04:13.357Z,1018.68
2017-03-31T02:05:22.569Z,1018.63
2017-03-31T02:06:31.465Z,1018.59
2017-03-31T02:07:40.353Z,1018.57
2017-03-31T02:08:49.536Z,1018.59
2017-03-31T02:09:58.769Z,1018.59
2017-03-31T02:11:07.985Z,1018.57
2017-03-31T02:12:16.873Z,1018.55
2017-03-31T02:13:25.762Z,1018.55
2017-03-31T02:14:34.753Z,1018.57
2017-03-31T02:15:43.973Z,1018.57
2017-03-31T02:16:53.189Z,1018.53
2017-03-31T02:18:02.433Z,1018.51
2017-03-31T02:19:11.320Z,1018.5
2017-03-31T02:20:20.356Z,1018.45
2017-03-31T02:21:29.241Z,1018.43
2017-03-31T02:22:38.131Z,1018.47
2017-03-31T02:23:47.020Z,1018.46
2017-03-31T02:24:55.911Z,1018.42
2017-03-31T02:26:04.952Z,1018.41
2017-03-31T02:27:13.845Z,1018.44
2017-03-31T02:28:23.060Z,1018.45
2017-03-31T02:29:31.953Z,1018.46
2017-03-31T02:30:40.845Z,1018.4
2017-03-31T02:31:50.358Z,1018.44
2017-03-31T02:32:59.276Z,1018.46
2017-03-31T02:34:08.171Z,1018.4
2017-03-31T02:35:17.060Z,1018.35
2017-03-31T02:36:26.277Z,1018.3
2017-03-31T02:37:36.066Z,1018.29
2017-03-31T02:38:44.952Z,1018.28
2017-03-31T02:39:53.837Z,1018.26
2017-03-31T02:41:03.058Z,1018.24
2017-03-31T02:42:11.945Z,1018.27
2017-03-31T02:43:21.456Z,1018.27
2017-03-31T02:44:30.668Z,1018.2
2017-03-31T02:45:40.220Z,1018.22
2017-03-31T02:46:49.111Z,1018.18
2017-03-31T02:47:58.001Z,1018.15
2017-03-31T02:49:07.296Z,1018.18
2017-03-31T02:50:16.213Z,1018.15
2017-03-31T02:51:25.106Z,1018.18
2017-03-31T02:52:33.998Z,1018.14
2017-03-31T02:53:42.890Z,1018.12
2017-03-31T02:54:52.074Z,1018.13
2017-03-31T02:56:01.284Z,1018.1
2017-03-31T02:57:10.180Z,1018.09
2017-03-31T02:58:19.069Z,1018.06
2017-03-31T02:59:28.279Z,1018.08
2017-03-31T03:00:37.266Z,1018.08
2017-03-31T03:01:46.150Z,1018.02
2017-03-31T03:02:55.035Z,1018.04
2017-03-31T03:04:03.927Z,1018.01
2017-03-31T03:05:12.813Z,1018.04
2017-03-31T03:06:21.858Z,1017.99
2017-03-31T03:07:30.746Z,1017.97
2017-03-31T03:08:39.957Z,1017.97
2017-03-31T03:09:49.169Z,1017.98
2017-03-31T03:10:58.055Z,1017.94
2017-03-31T03:12:06.994Z,1017.91
2017-03-31T03:13:16.211Z,1017.85
2017-03-31T03:14:25.099Z,1017.84
2017-03-31T03:15:34.314Z,1017.79
2017-03-31T03:16:43.201Z,1017.78
2017-03-31T03:17:52.787Z,1017.74
2017-03-31T03:19:02.032Z,1017.73
2017-03-31T03:20:10.915Z,1017.79
2017-03-31T03:21:19.804Z,1017.78
2017-03-31T03:22:28.697Z,1017.77
2017-03-31T03:23:37.640Z,1017.74
2017-03-31T03:24:46.526Z,1017.72
2017-03-31T03:25:55.412Z,1017.75
2017-03-31T03:27:04.301Z,1017.72
2017-03-31T03:28:13.191Z,1017.73
2017-03-31T03:29:22.486Z,1017.77
2017-03-31T03:30:31.697Z,1017.73
2017-03-31T03:31:40.592Z,1017.68
2017-03-31T03:32:49.476Z,1017.72
2017-03-31T03:33:58.366Z,1017.65
2017-03-31T03:35:07.409Z,1017.71
2017-03-31T03:36:16.623Z,1017.69
2017-03-31T03:37:25.842Z,1017.63
2017-03-31T03:38:34.730Z,1017.64
2017-03-31T03:39:43.621Z,1017.63
2017-03-31T03:40:52.759Z,1017.6
2017-03-31T03:42:01.647Z,1017.61
2017-03-31T03:43:10.864Z,1017.6
2017-03-31T03:44:19.749Z,1017.58
2017-03-31T03:45:28.634Z,1017.53
2017-03-31T03:46:37.895Z,1017.45
2017-03-31T03:47:46.821Z,1017.49
2017-03-31T03:48:55.711Z,1017.48
2017-03-31T03:50:04.603Z,1017.44
2017-03-31T03:51:13.819Z,1017.42
2017-03-31T03:52:22.705Z,1017.4
2017-03-31T03:53:31.948Z,1017.4
2017-03-31T03:54:40.830Z,1017.4
2017-03-31T03:55:50.044Z,1017.38
2017-03-31T03:56:58.935Z,1017.4
2017-03-31T03:58:08.144Z,1017.34
2017-03-31T03:59:17.029Z,1017.35
2017-03-31T04:00:26.245Z,1017.37
2017-03-31T04:01:35.132Z,1017.34
2017-03-31T04:02:44.020Z,1017.34
2017-03-31T04:03:53.008Z,1017.23
2017-03-31T04:05:02.219Z,1017.27
2017-03-31T04:06:11.108Z,1017.23
2017-03-31T04:07:20.326Z,1017.24
2017-03-31T04:08:29.249Z,1017.19
2017-03-31T04:09:38.285Z,1017.24
2017-03-31T04:10:47.175Z,1017.17
2017-03-31T04:11:56.068Z,1017.14
2017-03-31T04:13:05.278Z,1017.11
2017-03-31T04:14:14.790Z,1017.1
2017-03-31T04:15:23.835Z,1017.09
2017-03-31T04:16:32.729Z,1017.04
2017-03-31T04:17:41.635Z,1017.04
2017-03-31T04:18:50.527Z,1016.98
2017-03-31T04:19:59.423Z,1016.99
2017-03-31T04:21:08.889Z,1017
2017-03-31T04:22:18.102Z,1017
2017-03-31T04:23:27.311Z,1016.99
2017-03-31T04:24:36.204Z,1016.99
2017-03-31T04:25:45.419Z,1016.96
2017-03-31T04:26:54.454Z,1016.97
2017-03-31T04:28:03.343Z,1016.98
2017-03-31T04:29:12.556Z,1016.94
2017-03-31T04:30:21.445Z,1016.98
2017-03-31T04:31:30.341Z,1016.95
2017-03-31T04:32:39.235Z,1016.96
2017-03-31T04:33:48.128Z,1016.98
2017-03-31T04:34:57.017Z,1016.95
2017-03-31T04:36:06.231Z,1016.92
2017-03-31T04:37:15.123Z,1016.96
2017-03-31T04:38:24.115Z,1016.92
2017-03-31T04:39:33.328Z,1016.89
2017-03-31T04:40:42.542Z,1016.9
2017-03-31T04:41:51.432Z,1016.87
2017-03-31T04:43:00.320Z,1016.89
2017-03-31T04:44:09.259Z,1016.88
2017-03-31T04:45:18.148Z,1016.9
2017-03-31T04:46:27.041Z,1016.87
2017-03-31T04:47:36.255Z,1016.83
2017-03-31T04:48:45.144Z,1016.81
2017-03-31T04:49:54.185Z,1016.79
2017-03-31T04:51:03.435Z,1016.8
2017-03-31T04:52:12.323Z,1016.77
2017-03-31T04:53:21.212Z,1016.78
2017-03-31T04:54:30.097Z,1016.78
2017-03-31T04:55:39.408Z,1016.79
2017-03-31T04:56:48.297Z,1016.76
2017-03-31T04:57:57.830Z,1016.76
2017-03-31T04:59:06.714Z,1016.74
2017-03-31T05:00:15.605Z,1016.71
2017-03-31T05:01:24.548Z,1016.71
2017-03-31T05:02:33.461Z,1016.69
2017-03-31T05:03:42.356Z,1016.68
2017-03-31T05:04:51.897Z,1016.68
2017-03-31T05:06:00.785Z,1016.7
2017-03-31T05:07:09.830Z,1016.7
2017-03-31T05:08:18.728Z,1016.71
2017-03-31T05:09:27.941Z,1016.68
2017-03-31T05:10:37.158Z,1016.67
2017-03-31T05:11:46.049Z,1016.7
2017-03-31T05:12:55.415Z,1016.7
2017-03-31T05:14:04.336Z,1016.7
2017-03-31T05:15:13.553Z,1016.71
2017-03-31T05:16:22.440Z,1016.69
2017-03-31T05:17:31.656Z,1016.69
2017-03-31T05:18:40.547Z,1016.74
2017-03-31T05:19:49.438Z,1016.71
2017-03-31T05:20:58.976Z,1016.71
2017-03-31T05:22:07.867Z,1016.73
2017-03-31T05:23:17.459Z,1016.72
2017-03-31T05:24:26.500Z,1016.7
2017-03-31T05:25:35.389Z,1016.68
2017-03-31T05:26:44.277Z,1016.65
2017-03-31T05:27:53.168Z,1016.65
2017-03-31T05:29:02.061Z,1016.62
2017-03-31T05:30:11.151Z,1016.63
2017-03-31T05:31:20.051Z,1016.58
2017-03-31T05:32:28.942Z,1016.61
2017-03-31T05:33:37.834Z,1016.61
2017-03-31T05:34:46.725Z,1016.6
2017-03-31T05:35:55.765Z,1016.61
2017-03-31T05:37:04.654Z,1016.59
2017-03-31T05:38:13.547Z,1016.61
2017-03-31T05:39:22.438Z,1016.6
2017-03-31T05:40:31.659Z,1016.56
2017-03-31T05:41:40.599Z,1016.58
2017-03-31T05:42:49.496Z,1016.54
2017-03-31T05:43:58.384Z,1016.53
2017-03-31T05:45:07.274Z,1016.56
2017-03-31T05:46:16.163Z,1016.58
2017-03-31T05:47:25.427Z,1016.55
2017-03-31T05:48:34.313Z,1016.53
2017-03-31T05:49:43.212Z,1016.55
2017-03-31T05:50:52.108Z,1016.57
2017-03-31T05:52:01.322Z,1016.53
2017-03-31T05:53:10.590Z,1016.53
2017-03-31T05:54:19.485Z,1016.5
2017-03-31T05:55:28.379Z,1016.5
2017-03-31T05:56:37.269Z,1016.49
2017-03-31T05:57:46.166Z,1016.49
2017-03-31T05:58:55.304Z,1016.49
2017-03-31T06:00:04.193Z,1016.43
2017-03-31T06:01:13.086Z,1016.51
2017-03-31T06:02:21.978Z,1016.49
2017-03-31T06:03:30.871Z,1016.48
2017-03-31T06:04:39.861Z,1016.47
2017-03-31T06:05:48.752Z,1016.44
2017-03-31T06:06:57.641Z,1016.44
2017-03-31T06:08:06.537Z,1016.45
2017-03-31T06:09:15.432Z,1016.44
2017-03-31T06:10:24.372Z,1016.42
2017-03-31T06:11:33.263Z,1016.44
2017-03-31T06:12:42.152Z,1016.44
2017-03-31T06:13:51.049Z,1016.43
2017-03-31T06:14:59.942Z,1016.42
2017-03-31T06:16:09.211Z,1016.44
2017-03-31T06:17:18.436Z,1016.38
2017-03-31T06:18:27.325Z,1016.34
2017-03-31T06:19:36.213Z,1016.33
2017-03-31T06:20:45.130Z,1016.36
2017-03-31T06:21:54.493Z,1016.32
2017-03-31T06:23:04.036Z,1016.32
2017-03-31T06:24:12.920Z,1016.3
2017-03-31T06:25:21.807Z,1016.33
2017-03-31T06:26:30.696Z,1016.29
2017-03-31T06:27:39.582Z,1016.3
2017-03-31T06:28:48.471Z,1016.26
2017-03-31T06:29:57.379Z,1016.27
2017-03-31T06:31:06.599Z,1016.22
2017-03-31T06:32:15.814Z,1016.2
2017-03-31T06:33:24.855Z,1016.25
2017-03-31T06:34:33.744Z,1016.2
2017-03-31T06:35:42.633Z,1016.21
2017-03-31T06:36:51.520Z,1016.16
2017-03-31T06:38:00.410Z,1016.19
2017-03-31T06:39:09.773Z,1016.18
2017-03-31T06:40:18.668Z,1016.17
2017-03-31T06:41:27.555Z,1016.17
2017-03-31T06:42:36.777Z,1016.17
2017-03-31T06:43:45.665Z,1016.17
2017-03-31T06:44:55.293Z,1016.15
2017-03-31T06:46:04.842Z,1016.15
2017-03-31T06:47:13.730Z,1016.16
2017-03-31T06:48:22.620Z,1016.11
2017-03-31T06:49:31.514Z,1016.13
2017-03-31T06:50:40.877Z,1016.11
2017-03-31T06:51:49.776Z,1016.13
2017-03-31T06:52:59.004Z,1016.1
2017-03-31T06:54:07.895Z,1016.11
2017-03-31T06:55:16.791Z,1016.06
2017-03-31T06:56:26.053Z,1016.07
2017-03-31T06:57:34.943Z,1016
2017-03-31T06:58:43.831Z,1016
2017-03-31T06:59:52.725Z,1016.01
2017-03-31T07:01:01.612Z,1016
2017-03-31T07:02:10.650Z,1015.98
2017-03-31T07:03:19.541Z,1015.98
2017-03-31T07:04:28.433Z,1015.96
2017-03-31T07:05:37.322Z,1015.98
2017-03-31T07:06:46.537Z,1015.92
2017-03-31T07:07:55.629Z,1015.95
2017-03-31T07:09:04.534Z,1015.93
2017-03-31T07:10:13.783Z,1015.95
2017-03-31T07:11:22.671Z,1015.88
2017-03-31T07:12:31.885Z,1015.86
2017-03-31T07:13:40.823Z,1015.87
2017-03-31T07:14:49.713Z,1015.85
2017-03-31T07:15:58.634Z,1015.86
2017-03-31T07:17:07.526Z,1015.87
2017-03-31T07:18:16.419Z,1015.87
2017-03-31T07:19:25.557Z,1015.83
2017-03-31T07:20:34.448Z,1015.81
2017-03-31T07:21:43.343Z,1015.84
2017-03-31T07:22:52.234Z,1015.83
2017-03-31T07:24:01.129Z,1015.8
2017-03-31T07:25:10.175Z,1015.74
2017-03-31T07:26:19.062Z,1015.77
2017-03-31T07:27:28.278Z,1015.81
2017-03-31T07:28:37.168Z,1015.78
2017-03-31T07:29:46.060Z,1015.77
2017-03-31T07:30:55.426Z,1015.76
2017-03-31T07:32:04.321Z,1015.77
2017-03-31T07:33:13.537Z,1015.72
2017-03-31T07:34:22.425Z,1015.75
2017-03-31T07:35:31.336Z,1015.72
2017-03-31T07:36:41.500Z,1015.69
2017-03-31T07:37:50.395Z,1015.69
2017-03-31T07:38:59.284Z,1015.66
2017-03-31T07:40:08.171Z,1015.62
2017-03-31T07:41:17.061Z,1015.58
2017-03-31T07:42:25.955Z,1015.6
2017-03-31T07:43:34.846Z,1015.6
2017-03-31T07:44:44.062Z,1015.59
2017-03-31T07:45:53.600Z,1015.55
2017-03-31T07:47:02.489Z,1015.55
2017-03-31T07:48:11.633Z,1015.51
2017-03-31T07:49:20.847Z,1015.54
2017-03-31T07:50:29.742Z,1015.53
2017-03-31T07:51:38.978Z,1015.51
2017-03-31T07:52:47.867Z,1015.51
2017-03-31T07:53:57.230Z,1015.43
2017-03-31T07:55:06.122Z,1015.43
2017-03-31T07:56:15.066Z,1015.46
2017-03-31T07:57:23.957Z,1015.43
2017-03-31T07:58:32.850Z,1015.39
2017-03-31T07:59:41.988Z,1015.41
2017-03-31T08:00:50.874Z,1015.36
2017-03-31T08:01:59.764Z,1015.34
2017-03-31T08:03:08.657Z,1015.31
2017-03-31T08:04:17.548Z,1015.32
2017-03-31T08:05:26.590Z,1015.3
2017-03-31T08:06:35.802Z,1015.27
2017-03-31T08:07:44.693Z,1015.29
2017-03-31T08:08:53.580Z,1015.31
2017-03-31T08:10:02.471Z,1015.26
2017-03-31T08:11:11.416Z,1015.31
2017-03-31T08:12:20.955Z,1015.33
2017-03-31T08:13:29.847Z,1015.33
2017-03-31T08:14:38.743Z,1015.32
2017-03-31T08:15:47.964Z,1015.3
2017-03-31T08:16:57.059Z,1015.29
2017-03-31T08:18:05.955Z,1015.21
2017-03-31T08:19:14.846Z,1015.24
2017-03-31T08:20:23.740Z,1015.19
2017-03-31T08:21:32.632Z,1015.21
2017-03-31T08:22:42.428Z,1015.21
2017-03-31T08:23:51.650Z,1015.14
2017-03-31T08:25:00.894Z,1015.17
2017-03-31T08:26:09.789Z,1015.14
2017-03-31T08:27:18.682Z,1015.12
2017-03-31T08:28:27.622Z,1015.11
2017-03-31T08:29:36.837Z,1015.16
2017-03-31T08:30:45.733Z,1015.12
2017-03-31T08:31:54.970Z,1015.16
2017-03-31T08:33:03.877Z,1015.09
2017-03-31T08:34:13.121Z,1015.07
2017-03-31T08:35:22.015Z,1015.07
2017-03-31T08:36:31.241Z,1015.13
2017-03-31T08:37:40.464Z,1015.14
2017-03-31T08:38:49.358Z,1015.14
2017-03-31T08:39:58.409Z,1015.07
2017-03-31T08:41:07.640Z,1015.1
2017-03-31T08:42:16.546Z,1015.11
2017-03-31T08:43:25.457Z,1015.11
2017-03-31T08:44:34.359Z,1015.1
2017-03-31T08:45:43.559Z,1015.14
2017-03-31T08:46:52.463Z,1015.09
2017-03-31T08:48:01.685Z,1015.12
2017-03-31T08:49:10.585Z,1015.09
2017-03-31T08:50:19.491Z,1015.14
2017-03-31T08:51:28.540Z,1015.11
2017-03-31T08:52:37.434Z,1015.09
2017-03-31T08:53:46.653Z,1015.01
2017-03-31T08:54:56.196Z,1015.05
2017-03-31T08:56:05.091Z,1014.99
2017-03-31T08:57:14.081Z,1014.98
2017-03-31T08:58:22.972Z,1014.98
2017-03-31T08:59:31.866Z,1014.97
2017-03-31T09:00:40.767Z,1014.97
2017-03-31T09:01:49.661Z,1014.94
2017-03-31T09:02:58.975Z,1014.91
2017-03-31T09:04:07.877Z,1014.92
2017-03-31T09:05:16.771Z,1014.9
2017-03-31T09:06:25.989Z,1014.93
2017-03-31T09:07:35.204Z,1014.89
2017-03-31T09:08:44.352Z,1014.87
2017-03-31T09:09:53.249Z,1014.9
2017-03-31T09:11:02.148Z,1014.88
2017-03-31T09:12:11.089Z,1014.91
2017-03-31T09:13:20.307Z,1014.87
2017-03-31T09:14:29.453Z,1014.85
2017-03-31T09:15:38.351Z,1014.89
2017-03-31T09:16:47.273Z,1014.87
2017-03-31T09:17:56.164Z,1014.82
2017-03-31T09:19:05.055Z,1014.82
2017-03-31T09:20:14.001Z,1014.79
2017-03-31T09:21:22.902Z,1014.83
2017-03-31T09:22:31.801Z,1014.8
2017-03-31T09:23:40.695Z,1014.75
2017-03-31T09:24:49.941Z,1014.78
2017-03-31T09:25:58.845Z,1014.77
2017-03-31T09:27:07.740Z,1014.74
2017-03-31T09:28:16.632Z,1014.69
2017-03-31T09:29:25.522Z,1014.7
2017-03-31T09:30:34.416Z,1014.7
2017-03-31T09:31:43.410Z,1014.65
2017-03-31T09:32:52.305Z,1014.65
2017-03-31T09:34:01.523Z,1014.63
2017-03-31T09:35:10.418Z,1014.6
2017-03-31T09:36:19.314Z,1014.59
2017-03-31T09:37:28.411Z,1014.66
2017-03-31T09:38:37.316Z,1014.57
2017-03-31T09:39:46.534Z,1014.59
2017-03-31T09:40:55.429Z,1014.6
2017-03-31T09:42:04.322Z,1014.59
2017-03-31T09:43:13.370Z,1014.55
2017-03-31T09:44:22.263Z,1014.54
2017-03-31T09:45:31.807Z,1014.49
2017-03-31T09:46:40.701Z,1014.49
2017-03-31T09:47:49.595Z,1014.48
2017-03-31T09:48:58.913Z,1014.47
2017-03-31T09:50:07.809Z,1014.44
2017-03-31T09:51:16.703Z,1014.46
2017-03-31T09:52:25.599Z,1014.43
2017-03-31T09:53:34.490Z,1014.44
2017-03-31T09:54:43.685Z,1014.44
2017-03-31T09:55:52.580Z,1014.38
2017-03-31T09:57:02.126Z,1014.41
2017-03-31T09:58:11.027Z,1014.42
2017-03-31T09:59:19.924Z,1014.36
2017-03-31T10:00:28.821Z,1014.38
2017-03-31T10:01:38.043Z,1014.35
2017-03-31T10:02:46.937Z,1014.32
2017-03-31T10:03:55.865Z,1014.28
2017-03-31T10:05:04.772Z,1014.27
2017-03-31T10:06:13.772Z,1014.25
2017-03-31T10:07:22.997Z,1014.26
2017-03-31T10:08:31.888Z,1014.23
2017-03-31T10:09:40.784Z,1014.24
2017-03-31T10:10:49.683Z,1014.19
2017-03-31T10:11:59.051Z,1014.23
2017-03-31T10:13:07.951Z,1014.21
2017-03-31T10:14:17.046Z,1014.22
2017-03-31T10:15:25.948Z,1014.25
2017-03-31T10:16:35.489Z,1014.16
2017-03-31T10:17:44.532Z,1014.16
2017-03-31T10:18:53.424Z,1014.14
2017-03-31T10:20:02.321Z,1014.17
2017-03-31T10:21:11.222Z,1014.15
2017-03-31T10:22:20.119Z,1014.15
2017-03-31T10:23:29.067Z,1014.12
2017-03-31T10:24:37.970Z,1014.15
2017-03-31T10:25:46.865Z,1014.15
2017-03-31T10:26:55.762Z,1014.1
2017-03-31T10:28:04.664Z,1014.08
2017-03-31T10:29:13.709Z,1014.05
2017-03-31T10:30:22.609Z,1014.03
2017-03-31T10:31:31.837Z,1014.04
2017-03-31T10:32:40.730Z,1013.98
2017-03-31T10:33:49.625Z,1014.04
2017-03-31T10:34:58.997Z,1014.02
2017-03-31T10:36:08.223Z,1014.01
2017-03-31T10:37:17.154Z,1014.01
2017-03-31T10:38:26.049Z,1014
2017-03-31T10:39:34.943Z,1013.97
2017-03-31T10:40:43.992Z,1014.01
2017-03-31T10:41:53.212Z,1013.96
2017-03-31T10:43:02.117Z,1013.96
2017-03-31T10:44:11.338Z,1013.93
2017-03-31T10:45:20.238Z,1013.96
2017-03-31T10:46:29.384Z,1013.92
2017-03-31T10:47:38.288Z,1013.88
2017-03-31T10:48:47.183Z,1013.86
2017-03-31T10:49:56.090Z,1013.87
2017-03-31T10:51:05.309Z,1013.92
2017-03-31T10:52:14.460Z,1013.83
2017-03-31T10:53:23.366Z,1013.84
2017-03-31T10:54:32.266Z,1013.81
2017-03-31T10:55:41.167Z,1013.79
2017-03-31T10:56:50.069Z,1013.75
2017-03-31T10:57:59.265Z,1013.74
2017-03-31T10:59:08.165Z,1013.67
2017-03-31T11:00:17.058Z,1013.68
2017-03-31T11:01:25.955Z,1013.67
2017-03-31T11:02:34.856Z,1013.64
2017-03-31T11:03:44.278Z,1013.7
2017-03-31T11:04:53.175Z,1013.68
2017-03-31T11:06:02.392Z,1013.6
2017-03-31T11:07:11.303Z,1013.62
2017-03-31T11:08:20.207Z,1013.59
2017-03-31T11:09:29.260Z,1013.54
2017-03-31T11:10:38.494Z,1013.52
2017-03-31T11:11:47.720Z,1013.49
2017-03-31T11:12:56.628Z,1013.52
2017-03-31T11:14:05.530Z,1013.49
2017-03-31T11:15:14.580Z,1013.44
2017-03-31T11:16:24.129Z,1013.43
2017-03-31T11:17:33.092Z,1013.33
2017-03-31T11:18:41.990Z,1013.38
2017-03-31T11:19:50.886Z,1013.35
2017-03-31T11:21:00.033Z,1013.33
2017-03-31T11:22:09.255Z,1013.34
2017-03-31T11:23:18.490Z,1013.34
2017-03-31T11:24:27.389Z,1013.35
2017-03-31T11:25:36.298Z,1013.38
2017-03-31T11:26:45.674Z,1013.34
2017-03-31T11:27:54.573Z,1013.28
2017-03-31T11:29:03.472Z,1013.26
2017-03-31T11:30:12.374Z,1013.33
2017-03-31T11:31:21.277Z,1013.28
2017-03-31T11:32:30.224Z,1013.3
2017-03-31T11:33:39.121Z,1013.3
2017-03-31T11:34:48.020Z,1013.31
2017-03-31T11:35:56.918Z,1013.29
2017-03-31T11:37:05.841Z,1013.31
2017-03-31T11:38:15.394Z,1013.36
2017-03-31T11:39:24.313Z,1013.31
2017-03-31T11:40:33.212Z,1013.37
2017-03-31T11:41:42.127Z,1013.31
2017-03-31T11:42:51.043Z,1013.31
2017-03-31T11:43:59.944Z,1013.24
2017-03-31T11:45:09.163Z,1013.27
2017-03-31T11:46:18.064Z,1013.25
2017-03-31T11:47:26.970Z,1013.28
2017-03-31T11:48:35.868Z,1013.29
2017-03-31T11:49:45.065Z,1013.26
2017-03-31T11:50:54.290Z,1013.2
2017-03-31T11:52:03.840Z,1013.21
2017-03-31T11:53:12.737Z,1013.25
2017-03-31T11:54:21.650Z,1013.25
2017-03-31T11:55:30.697Z,1013.19
2017-03-31T11:56:39.957Z,1013.13
2017-03-31T11:57:48.936Z,1013.16
2017-03-31T11:58:57.888Z,1013.06
2017-03-31T12:00:07.107Z,1013.12
2017-03-31T12:01:16.261Z,1013.09
2017-03-31T12:02:25.179Z,1013.11
2017-03-31T12:03:34.076Z,1013.04
2017-03-31T12:04:42.978Z,1013.02
2017-03-31T12:05:51.879Z,1013.03
2017-03-31T12:07:01.485Z,1013.01
2017-03-31T12:08:10.386Z,1013.04
2017-03-31T12:09:19.611Z,1013.01
2017-03-31T12:10:28.847Z,1013.09
2017-03-31T12:11:37.750Z,1013.03
2017-03-31T12:12:46.706Z,1012.94
2017-03-31T12:13:55.604Z,1012.92
2017-03-31T12:15:04.509Z,1012.92
2017-03-31T12:16:13.410Z,1012.93
2017-03-31T12:17:22.314Z,1013.02
2017-03-31T12:18:31.590Z,1012.99
2017-03-31T12:19:40.500Z,1012.98
2017-03-31T12:20:49.399Z,1013.01
2017-03-31T12:21:58.630Z,1013.01
2017-03-31T12:23:08.181Z,1012.98
2017-03-31T12:24:17.489Z,1012.93
2017-03-31T12:25:26.716Z,1012.97
2017-03-31T12:26:35.942Z,1012.88
2017-03-31T12:27:44.849Z,1012.78
2017-03-31T12:28:53.749Z,1012.8
2017-03-31T12:30:02.701Z,1012.74
2017-03-31T12:31:11.613Z,1012.72
2017-03-31T12:32:20.516Z,1012.73
2017-03-31T12:33:29.419Z,1012.72
2017-03-31T12:34:38.321Z,1012.69
2017-03-31T12:35:47.393Z,1012.63
2017-03-31T12:36:56.295Z,1012.73
2017-03-31T12:38:05.196Z,1012.76
2017-03-31T12:39:14.099Z,1012.67
2017-03-31T12:40:23.004Z,1012.74
2017-03-31T12:41:32.093Z,1012.72
2017-03-31T12:42:41.328Z,1012.77
2017-03-31T12:43:50.244Z,1012.74
2017-03-31T12:44:59.471Z,1012.76
2017-03-31T12:46:08.378Z,1012.74
2017-03-31T12:47:17.655Z,1012.75
2017-03-31T12:48:26.560Z,1012.7
2017-03-31T12:49:35.466Z,1012.83
2017-03-31T12:50:44.700Z,1012.74
2017-03-31T12:51:53.682Z,1012.75
2017-03-31T12:53:02.736Z,1012.71
2017-03-31T12:54:11.636Z,1012.68
2017-03-31T12:55:20.549Z,1012.64
2017-03-31T12:56:29.455Z,1012.57
2017-03-31T12:57:38.361Z,1012.56
2017-03-31T12:58:47.562Z,1012.58
2017-03-31T12:59:56.467Z,1012.62
2017-03-31T13:01:05.425Z,1012.61
2017-03-31T13:02:14.513Z,1012.57
2017-03-31T13:03:23.424Z,1012.66
2017-03-31T13:04:32.488Z,1012.57
2017-03-31T13:05:41.440Z,1012.55
2017-03-31T13:06:50.354Z,1012.6
2017-03-31T13:07:59.288Z,1012.6
2017-03-31T13:09:08.521Z,1012.57
2017-03-31T13:10:17.730Z,1012.62
2017-03-31T13:11:26.964Z,1012.58
2017-03-31T13:12:35.872Z,1012.61
2017-03-31T13:13:44.778Z,1012.56
2017-03-31T13:14:54.004Z,1012.65
2017-03-31T13:16:03.348Z,1012.57
2017-03-31T13:17:12.258Z,1012.56
2017-03-31T13:18:21.166Z,1012.6
2017-03-31T13:19:30.066Z,1012.55
2017-03-31T13:20:40.191Z,1012.5
2017-03-31T13:21:49.250Z,1012.51
2017-03-31T13:22:58.151Z,1012.5
2017-03-31T13:24:07.057Z,1012.5
2017-03-31T13:25:15.976Z,1012.48
2017-03-31T13:26:24.944Z,1012.41
2017-03-31T13:27:34.332Z,1012.36
2017-03-31T13:28:43.235Z,1012.36
2017-03-31T13:29:52.465Z,1012.35
2017-03-31T13:31:02.016Z,1012.33
2017-03-31T13:32:10.921Z,1012.31
2017-03-31T13:33:19.980Z,1012.26
2017-03-31T13:34:28.884Z,1012.32
2017-03-31T13:35:37.784Z,1012.29
2017-03-31T13:36:46.689Z,1012.27
2017-03-31T13:37:55.595Z,1012.25
2017-03-31T13:39:04.974Z,1012.26
2017-03-31T13:40:13.874Z,1012.2
2017-03-31T13:41:22.777Z,1012.23
2017-03-31T13:42:32.008Z,1012.19
2017-03-31T13:43:40.914Z,1012.22
2017-03-31T13:44:50.115Z,1012.22
2017-03-31T13:45:59.017Z,1012.21
2017-03-31T13:47:07.919Z,1012.22
2017-03-31T13:48:16.828Z,1012.16
2017-03-31T13:49:25.729Z,1012.2
2017-03-31T13:50:34.688Z,1012.17
2017-03-31T13:51:43.925Z,1012.14
2017-03-31T13:52:53.159Z,1012.15
2017-03-31T13:54:02.071Z,1012.17
2017-03-31T13:55:11.302Z,1012.14
2017-03-31T13:56:20.682Z,1012.16
2017-03-31T13:57:29.586Z,1012.2
2017-03-31T13:58:38.495Z,1012.12